createdAt,value
2017-01-22T09:10:08.202Z,14.25
2017-01-22T09:11:18.373Z,13.91
2017-01-22T09:12:28.098Z,13.19
2017-01-22T09:13:37.821Z,12.32
2017-01-22T09:14:47.997Z,11.78
2017-01-22T09:15:58.210Z,11.8
2017-01-22T09:17:07.935Z,11.47
2017-01-22T09:18:17.664Z,11.22
2017-01-22T09:19:27.829Z,11.29
2017-01-22T09:20:37.555Z,11.57
2017-01-22T09:21:47.337Z,11.9
2017-01-22T09:22:57.526Z,12.24
2017-01-22T09:24:07.695Z,12.52
2017-01-22T09:25:17.449Z,12.77
2017-01-22T09:26:27.176Z,12.97
2017-01-22T09:27:36.519Z,13.25
2017-01-22T09:28:46.693Z,13.42
2017-01-22T09:29:56.865Z,13.62
2017-01-22T09:31:07.030Z,13.87
2017-01-22T09:32:16.764Z,13.88
2017-01-22T09:33:26.092Z,14.06
2017-01-22T09:34:35.818Z,14.17
2017-01-22T09:35:45.557Z,14.36
2017-01-22T09:36:55.289Z,14.43
2017-01-22T09:38:05.015Z,14.64
2017-01-22T09:39:14.792Z,14.75
2017-01-22T09:40:24.520Z,14.75
2017-01-22T09:41:34.254Z,14.8
2017-01-22T09:42:43.987Z,14.99
2017-01-22T09:43:54.164Z,15.06
2017-01-22T09:45:04.386Z,15.17
2017-01-22T09:46:14.112Z,15.27
2017-01-22T09:47:24.293Z,15.35
2017-01-22T09:48:34.910Z,15.43
2017-01-22T09:49:44.828Z,15.51
2017-01-22T09:50:55.044Z,15.64
2017-01-22T09:52:05.217Z,15.72
2017-01-22T09:53:15.822Z,15.9
2017-01-22T09:54:25.996Z,15.9
2017-01-22T09:55:35.797Z,16
2017-01-22T09:56:45.574Z,16.11
2017-01-22T09:57:54.865Z,16.14
2017-01-22T09:59:05.033Z,16.23
2017-01-22T10:00:14.766Z,16.31
2017-01-22T10:01:24.048Z,16.35
2017-01-22T10:02:35.154Z,16.39
2017-01-22T10:03:44.882Z,16.42
2017-01-22T10:04:54.607Z,16.52
2017-01-22T10:06:04.109Z,16.5
2017-01-22T10:07:13.403Z,16.6
2017-01-22T10:08:23.527Z,16.71
2017-01-22T10:09:34.315Z,16.73
2017-01-22T10:10:44.961Z,16.81
2017-01-22T10:11:54.702Z,16.86
2017-01-22T10:13:05.104Z,16.94
2017-01-22T10:14:15.596Z,16.96
2017-01-22T10:15:25.765Z,17.06
2017-01-22T10:16:35.783Z,17.04
2017-01-22T10:17:46.084Z,17.06
2017-01-22T10:18:55.819Z,17.07
2017-01-22T10:20:06.149Z,17.08
2017-01-22T10:21:16.535Z,17.18
2017-01-22T10:22:26.708Z,17.18
2017-01-22T10:23:36.878Z,17.18
2017-01-22T10:24:47.055Z,17.22
2017-01-22T10:25:57.280Z,17.25
2017-01-22T10:27:07.022Z,17.23
2017-01-22T10:28:16.951Z,17.33
2017-01-22T10:29:27.320Z,17.31
2017-01-22T10:30:37.493Z,17.37
2017-01-22T10:31:47.716Z,17.34
2017-01-22T10:32:57.212Z,17.34
2017-01-22T10:34:07.385Z,17.37
2017-01-22T10:35:16.995Z,17.4
2017-01-22T10:36:27.265Z,17.4
2017-01-22T10:37:37.649Z,17.41
2017-01-22T10:38:46.950Z,17.51
2017-01-22T10:39:56.688Z,17.48
2017-01-22T10:41:06.413Z,17.48
2017-01-22T10:42:16.150Z,17.49
2017-01-22T10:43:26.368Z,17.49
2017-01-22T10:44:36.101Z,17.51
2017-01-22T10:45:45.838Z,17.55
2017-01-22T10:46:55.791Z,17.55
2017-01-22T10:48:07.228Z,17.55
2017-01-22T10:49:17.222Z,17.55
2017-01-22T10:50:26.731Z,17.58
2017-01-22T10:51:36.479Z,17.55
2017-01-22T10:52:46.413Z,17.55
2017-01-22T10:53:56.355Z,17.56
2017-01-22T10:55:06.164Z,17.56
2017-01-22T10:56:15.906Z,17.58
2017-01-22T10:57:26.082Z,17.58
2017-01-22T10:58:35.808Z,17.58
2017-01-22T10:59:45.538Z,17.58
2017-01-22T11:00:55.758Z,17.58
2017-01-22T11:02:05.695Z,17.55
2017-01-22T11:03:15.420Z,17.55
2017-01-22T11:04:26.038Z,17.56
2017-01-22T11:05:35.794Z,17.56
2017-01-22T11:06:46.103Z,17.66
2017-01-22T11:07:56.281Z,17.66
2017-01-22T11:09:06.115Z,17.55
2017-01-22T11:10:15.848Z,17.64
2017-01-22T11:11:25.665Z,17.68
2017-01-22T11:12:35.886Z,17.54
2017-01-22T11:13:46.128Z,17.7
2017-01-22T11:14:56.191Z,17.7
2017-01-22T11:16:05.918Z,17.77
2017-01-22T11:17:15.867Z,17.71
2017-01-22T11:18:25.212Z,17.77
2017-01-22T11:19:35.593Z,17.71
2017-01-22T11:20:45.323Z,17.74
2017-01-22T11:21:55.079Z,17.78
2017-01-22T11:23:05.698Z,17.74
2017-01-22T11:24:15.475Z,17.72
2017-01-22T11:25:26.094Z,17.71
2017-01-22T11:26:35.825Z,17.66
2017-01-22T11:27:45.554Z,17.72
2017-01-22T11:28:55.286Z,17.7
2017-01-22T11:30:06.109Z,17.68
2017-01-22T11:31:15.865Z,17.72
2017-01-22T11:32:25.598Z,17.7
2017-01-22T11:33:35.809Z,17.63
2017-01-22T11:34:45.537Z,17.55
2017-01-22T11:35:55.318Z,17.66
2017-01-22T11:37:05.492Z,17.59
2017-01-22T11:38:15.216Z,17.59
2017-01-22T11:39:25.159Z,17.55
2017-01-22T11:40:35.022Z,17.59
2017-01-22T11:41:44.868Z,17.64
2017-01-22T11:42:55.381Z,17.64
2017-01-22T11:44:07.683Z,17.56
2017-01-22T11:45:16.980Z,17.56
2017-01-22T11:46:28.128Z,17.58
2017-01-22T11:47:38.659Z,17.56
2017-01-22T11:48:48.939Z,17.64
2017-01-22T11:49:58.676Z,17.62
2017-01-22T11:51:08.414Z,17.63
2017-01-22T11:52:18.579Z,17.59
2017-01-22T11:53:29.241Z,17.55
2017-01-22T11:54:39.854Z,17.59
2017-01-22T11:55:51.359Z,17.62
2017-01-22T11:57:06.568Z,17.55
2017-01-22T11:58:24.251Z,17.56
2017-01-22T11:59:37.311Z,17.55
2017-01-22T12:00:47.048Z,17.64
2017-01-22T12:01:56.773Z,17.72
2017-01-22T12:03:06.511Z,17.75
2017-01-22T12:04:16.292Z,17.62
2017-01-22T12:05:26.025Z,17.7
2017-01-22T12:06:35.774Z,17.71
2017-01-22T12:07:45.504Z,17.74
2017-01-22T12:08:55.242Z,17.66
2017-01-22T12:10:05.025Z,17.77
2017-01-22T12:11:14.759Z,17.63
2017-01-22T12:12:24.492Z,17.71
2017-01-22T12:13:34.666Z,17.86
2017-01-22T12:14:44.395Z,17.81
2017-01-22T12:15:54.172Z,17.79
2017-01-22T12:17:03.465Z,17.87
2017-01-22T12:18:13.638Z,17.9
2017-01-22T12:19:23.372Z,17.97
2017-01-22T12:20:33.097Z,17.87
2017-01-22T12:21:43.078Z,17.92
2017-01-22T12:22:53.251Z,17.97
2017-01-22T12:24:02.981Z,17.96
2017-01-22T12:25:12.710Z,18.02
2017-01-22T12:26:22.879Z,18
2017-01-22T12:27:32.659Z,18.02
2017-01-22T12:28:42.388Z,18
2017-01-22T12:29:52.115Z,18.03
2017-01-22T12:31:02.288Z,18.02
2017-01-22T12:32:12.465Z,18.1
2017-01-22T12:33:23.134Z,18.1
2017-01-22T12:34:33.311Z,18.05
2017-01-22T12:35:43.038Z,18.05
2017-01-22T12:36:52.770Z,18.07
2017-01-22T12:38:02.504Z,18.02
2017-01-22T12:39:12.732Z,18.05
2017-01-22T12:40:22.898Z,18.11
2017-01-22T12:41:32.623Z,18.05
2017-01-22T12:42:42.356Z,18.1
2017-01-22T12:43:52.969Z,18.07
2017-01-22T12:45:02.302Z,18.2
2017-01-22T12:46:11.592Z,18.12
2017-01-22T12:47:21.321Z,18.08
2017-01-22T12:48:31.498Z,18.02
2017-01-22T12:49:42.119Z,18.07
2017-01-22T12:50:51.903Z,18.05
2017-01-22T12:52:02.521Z,18.05
2017-01-22T12:53:12.694Z,18.07
2017-01-22T12:54:22.869Z,18.11
2017-01-22T12:55:33.929Z,17.97
2017-01-22T12:56:43.702Z,18.02
2017-01-22T12:57:53.436Z,18.03
2017-01-22T12:59:03.613Z,18
2017-01-22T13:00:13.346Z,18.1
2017-01-22T13:01:23.080Z,18
2017-01-22T13:02:33.309Z,17.99
2017-01-22T13:03:47.226Z,18.02
2017-01-22T13:05:03.235Z,17.99
2017-01-22T13:06:20.216Z,17.99
2017-01-22T13:07:31.726Z,17.95
2017-01-22T13:08:41.462Z,18.05
2017-01-22T13:09:50.748Z,18.02
2017-01-22T13:11:01.510Z,17.97
2017-01-22T13:12:11.918Z,17.96
2017-01-22T13:13:22.143Z,17.95
2017-01-22T13:14:32.320Z,18
2017-01-22T13:15:43.170Z,18.02
2017-01-22T13:16:53.307Z,17.99
2017-01-22T13:18:02.600Z,18
2017-01-22T13:19:12.981Z,18.03
2017-01-22T13:20:23.154Z,17.93
2017-01-22T13:21:33.328Z,17.95
2017-01-22T13:22:43.501Z,18.03
2017-01-22T13:23:53.678Z,17.99
2017-01-22T13:25:03.460Z,17.99
2017-01-22T13:26:13.193Z,17.97
2017-01-22T13:27:22.918Z,17.9
2017-01-22T13:28:33.095Z,17.87
2017-01-22T13:29:43.276Z,17.81
2017-01-22T13:30:53.058Z,17.9
2017-01-22T13:32:02.795Z,17.86
2017-01-22T13:33:13.412Z,17.84
2017-01-22T13:34:23.581Z,17.84
2017-01-22T13:35:33.311Z,17.9
2017-01-22T13:36:43.093Z,17.81
2017-01-22T13:37:53.266Z,17.72
2017-01-22T13:39:03.434Z,17.68
2017-01-22T13:40:13.610Z,17.7
2017-01-22T13:41:23.781Z,17.66
2017-01-22T13:42:34.005Z,17.68
2017-01-22T13:43:44.614Z,17.68
2017-01-22T13:44:55.668Z,17.68
2017-01-22T13:46:05.842Z,17.79
2017-01-22T13:47:16.022Z,17.66
2017-01-22T13:48:26.274Z,17.77
2017-01-22T13:49:36.003Z,17.66
2017-01-22T13:50:46.182Z,17.71
2017-01-22T13:51:56.351Z,17.74
2017-01-22T13:53:06.527Z,17.78
2017-01-22T13:54:17.641Z,17.59
2017-01-22T13:55:27.366Z,17.56
2017-01-22T13:56:37.096Z,17.66
2017-01-22T13:57:47.274Z,17.66
2017-01-22T13:58:57.000Z,17.62
2017-01-22T14:00:07.666Z,17.71
2017-01-22T14:01:16.956Z,17.55
2017-01-22T14:02:26.690Z,17.58
2017-01-22T14:03:36.430Z,17.64
2017-01-22T14:04:46.596Z,17.58
2017-01-22T14:05:55.933Z,17.55
2017-01-22T14:07:06.110Z,17.66
2017-01-22T14:08:16.275Z,17.56
2017-01-22T14:09:26.448Z,17.51
2017-01-22T14:10:36.612Z,17.54
2017-01-22T14:11:46.427Z,17.55
2017-01-22T14:12:57.039Z,17.54
2017-01-22T14:14:06.768Z,17.52
2017-01-22T14:15:16.942Z,17.51
2017-01-22T14:16:26.676Z,17.44
2017-01-22T14:17:36.457Z,17.52
2017-01-22T14:18:46.189Z,17.41
2017-01-22T14:19:55.922Z,17.41
2017-01-22T14:21:06.540Z,17.37
2017-01-22T14:22:16.713Z,17.43
2017-01-22T14:23:26.586Z,17.36
2017-01-22T14:24:36.315Z,17.34
2017-01-22T14:25:46.044Z,17.37
2017-01-22T14:26:56.214Z,17.34
2017-01-22T14:28:06.392Z,17.31
2017-01-22T14:29:17.063Z,17.34
2017-01-22T14:30:27.240Z,17.3
2017-01-22T14:31:36.970Z,17.21
2017-01-22T14:32:46.700Z,17.3
2017-01-22T14:33:56.432Z,17.21
2017-01-22T14:35:07.094Z,17.3
2017-01-22T14:36:16.819Z,17.16
2017-01-22T14:37:26.104Z,17.18
2017-01-22T14:38:36.280Z,17.21
2017-01-22T14:39:46.452Z,17.22
2017-01-22T14:40:56.677Z,17.18
2017-01-22T14:42:06.847Z,17.15
2017-01-22T14:43:16.570Z,17.14
2017-01-22T14:44:27.183Z,17.11
2017-01-22T14:45:37.357Z,17.11
2017-01-22T14:46:46.698Z,17.14
2017-01-22T14:47:56.859Z,17.06
2017-01-22T14:49:06.592Z,17.11
2017-01-22T14:50:16.769Z,17.15
2017-01-22T14:51:26.514Z,17.08
2017-01-22T14:52:36.739Z,17.08
2017-01-22T14:53:46.473Z,17.11
2017-01-22T14:54:56.202Z,17.08
2017-01-22T14:56:06.387Z,17.14
2017-01-22T14:57:16.336Z,17.03
2017-01-22T14:58:26.572Z,17.12
2017-01-22T14:59:36.963Z,17.21
2017-01-22T15:00:47.591Z,17.25
2017-01-22T15:01:57.877Z,17.25
2017-01-22T15:03:07.601Z,17.34
2017-01-22T15:04:17.383Z,17.34
2017-01-22T15:05:27.653Z,17.43
2017-01-22T15:06:37.379Z,17.48
2017-01-22T15:07:47.546Z,17.56
2017-01-22T15:08:56.963Z,17.52
2017-01-22T15:10:06.739Z,17.56
2017-01-22T15:11:16.693Z,17.77
2017-01-22T15:12:26.866Z,17.74
2017-01-22T15:13:37.056Z,17.82
2017-01-22T15:14:47.776Z,17.78
2017-01-22T15:15:58.070Z,17.87
2017-01-22T15:17:07.455Z,17.87
2017-01-22T15:18:17.791Z,17.95
2017-01-22T15:19:27.535Z,17.95
2017-01-22T15:20:36.838Z,17.97
2017-01-22T15:21:46.622Z,17.96
2017-01-22T15:22:56.800Z,18.03
2017-01-22T15:24:06.089Z,18.1
2017-01-22T15:25:15.466Z,18.11
2017-01-22T15:26:25.651Z,18.23
2017-01-22T15:27:35.441Z,18.23
2017-01-22T15:28:45.166Z,18.35
2017-01-22T15:29:55.367Z,18.36
2017-01-22T15:31:05.096Z,18.35
2017-01-22T15:32:15.274Z,18.33
2017-01-22T15:33:25.317Z,18.39
2017-01-22T15:34:35.113Z,18.44
2017-01-22T15:35:44.840Z,18.41
2017-01-22T15:36:54.614Z,18.5
2017-01-22T15:38:04.791Z,18.48
2017-01-22T15:39:14.568Z,18.55
2017-01-22T15:40:24.745Z,18.6
2017-01-22T15:41:35.398Z,18.48
2017-01-22T15:42:45.571Z,18.63
2017-01-22T15:43:55.745Z,18.69
2017-01-22T15:45:05.841Z,18.7
2017-01-22T15:46:15.347Z,18.67
2017-01-22T15:47:25.508Z,18.7
2017-01-22T15:48:35.901Z,18.75
2017-01-22T15:49:46.527Z,18.76
2017-01-22T15:50:55.867Z,18.73
2017-01-22T15:52:06.899Z,18.75
2017-01-22T15:53:17.081Z,18.78
2017-01-22T15:54:27.111Z,18.78
2017-01-22T15:55:36.848Z,18.73
2017-01-22T15:56:47.825Z,18.7
2017-01-22T15:57:58.042Z,18.67
2017-01-22T15:59:09.094Z,18.76
2017-01-22T16:00:23.109Z,18.75
2017-01-22T16:01:39.758Z,18.67
2017-01-22T16:02:55.379Z,18.73
2017-01-22T16:04:06.736Z,18.66
2017-01-22T16:05:16.034Z,18.66
2017-01-22T16:06:25.798Z,18.63
2017-01-22T16:07:36.025Z,18.6
2017-01-22T16:08:46.198Z,18.58
2017-01-22T16:09:55.931Z,18.57
2017-01-22T16:11:05.663Z,18.52
2017-01-22T16:12:14.964Z,18.54
2017-01-22T16:13:24.753Z,18.51
2017-01-22T16:14:35.824Z,18.52
2017-01-22T16:15:45.552Z,18.47
2017-01-22T16:16:56.173Z,18.57
2017-01-22T16:18:06.347Z,18.52
2017-01-22T16:19:16.577Z,18.51
2017-01-22T16:20:26.749Z,18.48
2017-01-22T16:21:36.034Z,18.52
2017-01-22T16:22:45.763Z,18.54
2017-01-22T16:23:55.928Z,18.55
2017-01-22T16:25:05.714Z,18.58
2017-01-22T16:26:16.331Z,18.65
2017-01-22T16:27:26.508Z,18.55
2017-01-22T16:28:37.121Z,18.65
2017-01-22T16:29:46.850Z,18.66
2017-01-22T16:30:56.627Z,18.65
2017-01-22T16:32:06.367Z,18.7
2017-01-22T16:33:16.970Z,18.73
2017-01-22T16:34:26.703Z,18.72
2017-01-22T16:35:36.872Z,18.75
2017-01-22T16:36:46.673Z,18.81
2017-01-22T16:37:56.859Z,18.73
2017-01-22T16:39:07.500Z,18.78
2017-01-22T16:40:18.113Z,18.87
2017-01-22T16:41:27.859Z,18.78
2017-01-22T16:42:38.080Z,18.81
2017-01-22T16:43:48.261Z,18.88
2017-01-22T16:44:58.459Z,18.85
2017-01-22T16:46:09.075Z,18.84
2017-01-22T16:47:19.252Z,18.84
2017-01-22T16:48:29.045Z,18.81
2017-01-22T16:49:39.229Z,18.87
2017-01-22T16:50:48.531Z,18.81
2017-01-22T16:51:59.144Z,18.84
2017-01-22T16:53:09.761Z,18.9
2017-01-22T16:54:20.896Z,18.88
2017-01-22T16:55:31.521Z,18.85
2017-01-22T16:56:41.266Z,18.91
2017-01-22T16:57:51.926Z,18.9
2017-01-22T16:59:02.564Z,18.92
2017-01-22T17:00:12.793Z,18.92
2017-01-22T17:01:22.959Z,18.92
2017-01-22T17:02:32.700Z,18.87
2017-01-22T17:03:41.989Z,18.92
2017-01-22T17:04:52.646Z,18.82
2017-01-22T17:06:02.462Z,18.92
2017-01-22T17:07:14.256Z,18.84
2017-01-22T17:08:25.124Z,18.85
2017-01-22T17:09:35.286Z,18.82
2017-01-22T17:10:46.749Z,18.82
2017-01-22T17:11:56.333Z,18.87
2017-01-22T17:13:07.462Z,18.82
2017-01-22T17:14:17.614Z,18.81
2017-01-22T17:15:27.625Z,18.81
2017-01-22T17:16:38.029Z,18.84
2017-01-22T17:17:48.263Z,18.85
2017-01-22T17:18:59.040Z,18.87
2017-01-22T17:20:08.324Z,18.88
2017-01-22T17:21:18.791Z,18.76
2017-01-22T17:22:28.988Z,18.81
2017-01-22T17:23:39.316Z,18.82
2017-01-22T17:24:49.506Z,18.8
2017-01-22T17:26:00.419Z,18.67
2017-01-22T17:27:10.816Z,18.76
2017-01-22T17:28:21.174Z,18.76
2017-01-22T17:29:31.583Z,18.66
2017-01-22T17:30:41.748Z,18.67
2017-01-22T17:31:51.284Z,18.62
2017-01-22T17:33:02.518Z,18.62
2017-01-22T17:34:13.228Z,18.67
2017-01-22T17:35:23.464Z,18.55
2017-01-22T17:36:34.098Z,18.52
2017-01-22T17:37:44.824Z,18.52
2017-01-22T17:38:54.649Z,18.54
2017-01-22T17:40:04.378Z,18.54
2017-01-22T17:41:14.451Z,18.5
2017-01-22T17:42:25.075Z,18.55
2017-01-22T17:43:34.805Z,18.51
2017-01-22T17:44:44.530Z,18.54
2017-01-22T17:45:54.712Z,18.5
2017-01-22T17:47:04.512Z,18.42
2017-01-22T17:48:15.134Z,18.52
2017-01-22T17:49:25.303Z,18.48
2017-01-22T17:50:35.032Z,18.41
2017-01-22T17:51:45.238Z,18.39
2017-01-22T17:52:57.706Z,18.36
2017-01-22T17:54:08.303Z,18.33
2017-01-22T17:55:18.921Z,18.39
2017-01-22T17:56:29.541Z,18.35
2017-01-22T17:57:40.596Z,18.44
2017-01-22T17:58:50.396Z,18.3
2017-01-22T18:00:00.685Z,18.29
2017-01-22T18:01:11.327Z,18.35
2017-01-22T18:02:21.592Z,18.2
2017-01-22T18:03:32.290Z,18.25
2017-01-22T18:04:43.110Z,18.23
2017-01-22T18:05:53.383Z,18.18
2017-01-22T18:07:04.081Z,18.21
2017-01-22T18:08:13.918Z,18.12
2017-01-22T18:09:24.195Z,18.12
2017-01-22T18:10:35.348Z,18.2
2017-01-22T18:11:46.029Z,18.15
2017-01-22T18:12:56.759Z,18.2
2017-01-22T18:14:06.609Z,18.2
2017-01-22T18:15:16.500Z,18.21
2017-01-22T18:16:27.350Z,18.23
2017-01-22T18:17:38.123Z,18.12
2017-01-22T18:18:49.358Z,18.12
2017-01-22T18:20:01.006Z,18.18
2017-01-22T18:21:10.986Z,18.15
2017-01-22T18:22:21.981Z,18.18
2017-01-22T18:23:33.021Z,18.23
2017-01-22T18:24:43.454Z,18.2
2017-01-22T18:25:54.160Z,18.2
2017-01-22T18:27:05.077Z,18.17
2017-01-22T18:28:15.686Z,18.15
2017-01-22T18:29:25.675Z,18.2
2017-01-22T18:30:35.604Z,18.2
2017-01-22T18:31:46.086Z,18.18
2017-01-22T18:32:56.334Z,18.18
2017-01-22T18:34:06.596Z,18.15
2017-01-22T18:35:16.769Z,18.18
2017-01-22T18:36:26.982Z,18.11
2017-01-22T18:37:37.595Z,18.2
2017-01-22T18:38:48.250Z,18.11
2017-01-22T18:39:58.487Z,18.07
2017-01-22T18:41:08.679Z,18.17
2017-01-22T18:42:18.888Z,18.1
2017-01-22T18:43:28.659Z,18.07
2017-01-22T18:44:38.346Z,18
2017-01-22T18:45:48.571Z,18.11
2017-01-22T18:46:59.749Z,18.07
2017-01-22T18:48:10.335Z,18.07
2017-01-22T18:49:20.971Z,17.99
2017-01-22T18:50:31.379Z,18.03
2017-01-22T18:51:41.613Z,17.99
2017-01-22T18:52:52.243Z,17.97
2017-01-22T18:54:02.880Z,18.02
2017-01-22T18:55:13.749Z,18.03
2017-01-22T18:56:23.690Z,17.99
2017-01-22T18:57:33.919Z,17.95
2017-01-22T18:58:43.857Z,17.96
2017-01-22T18:59:54.497Z,17.97
2017-01-22T19:01:04.034Z,17.99
2017-01-22T19:02:15.127Z,17.99
2017-01-22T19:03:25.518Z,17.96
2017-01-22T19:04:35.273Z,17.93
2017-01-22T19:05:46.199Z,17.96
2017-01-22T19:06:56.402Z,17.99
2017-01-22T19:08:06.896Z,17.96
2017-01-22T19:09:17.840Z,17.96
2017-01-22T19:10:28.029Z,18.03
2017-01-22T19:11:38.674Z,18.02
2017-01-22T19:12:48.436Z,17.93
2017-01-22T19:13:58.669Z,17.96
2017-01-22T19:15:08.496Z,17.87
2017-01-22T19:16:18.707Z,17.93
2017-01-22T19:17:28.916Z,17.82
2017-01-22T19:18:39.113Z,17.86
2017-01-22T19:19:48.874Z,17.96
2017-01-22T19:20:58.779Z,17.96
2017-01-22T19:22:08.969Z,17.87
2017-01-22T19:23:19.670Z,17.9
2017-01-22T19:24:29.880Z,17.96
2017-01-22T19:25:40.973Z,18.02
2017-01-22T19:26:51.337Z,18.02
2017-01-22T19:28:01.841Z,17.92
2017-01-22T19:29:13.408Z,17.97
2017-01-22T19:30:24.293Z,17.97
2017-01-22T19:31:34.515Z,17.93
2017-01-22T19:32:46.032Z,17.93
2017-01-22T19:33:56.357Z,17.99
2017-01-22T19:35:06.432Z,17.99
2017-01-22T19:36:17.591Z,17.9
2017-01-22T19:37:27.856Z,17.89
2017-01-22T19:38:38.429Z,17.87
2017-01-22T19:39:48.627Z,17.92
2017-01-22T19:40:59.372Z,17.95
2017-01-22T19:42:13.937Z,17.87
2017-01-22T19:43:23.731Z,17.87
2017-01-22T19:44:33.546Z,18.05
2017-01-22T19:45:43.335Z,17.96
2017-01-22T19:46:53.745Z,17.89
2017-01-22T19:48:03.086Z,17.89
2017-01-22T19:49:13.800Z,17.95
2017-01-22T19:50:24.948Z,17.89
2017-01-22T19:51:35.442Z,17.9
2017-01-22T19:52:45.646Z,17.84
2017-01-22T19:53:55.839Z,17.84
2017-01-22T19:55:05.600Z,17.84
2017-01-22T19:56:15.901Z,17.78
2017-01-22T19:57:26.079Z,17.77
2017-01-22T19:58:36.799Z,17.95
2017-01-22T19:59:47.701Z,17.78
2017-01-22T20:00:57.522Z,17.84
2017-01-22T20:02:08.187Z,17.81
2017-01-22T20:03:19.232Z,17.84
2017-01-22T20:04:29.796Z,17.82
2017-01-22T20:05:40.066Z,17.84
2017-01-22T20:06:49.952Z,17.82
2017-01-22T20:08:00.273Z,17.82
2017-01-22T20:09:10.961Z,17.92
2017-01-22T20:10:22.506Z,17.87
2017-01-22T20:11:33.705Z,17.9
2017-01-22T20:12:43.712Z,17.81
2017-01-22T20:13:55.014Z,17.79
2017-01-22T20:15:07.107Z,17.81
2017-01-22T20:16:17.712Z,17.84
2017-01-22T20:17:28.442Z,17.84
2017-01-22T20:18:40.191Z,17.84
2017-01-22T20:19:51.187Z,17.81
2017-01-22T20:21:02.485Z,17.84
2017-01-22T20:22:13.150Z,17.81
2017-01-22T20:23:23.765Z,17.86
2017-01-22T20:24:34.988Z,17.79
2017-01-22T20:25:45.809Z,17.84
2017-01-22T20:27:02.280Z,17.89
2017-01-22T20:28:20.859Z,17.93
2017-01-22T20:29:37.754Z,17.95
2017-01-22T20:30:48.358Z,17.84
2017-01-22T20:32:00.024Z,17.86
2017-01-22T20:33:10.221Z,17.9
2017-01-22T20:34:22.338Z,17.86
2017-01-22T20:35:34.696Z,17.87
2017-01-22T20:36:47.408Z,17.84
2017-01-22T20:37:59.969Z,17.93
2017-01-22T20:39:14.398Z,17.77
2017-01-22T20:40:26.201Z,17.74
2017-01-22T20:41:37.619Z,17.81
2017-01-22T20:42:50.370Z,17.79
2017-01-22T20:44:03.652Z,17.84
2017-01-22T20:45:15.652Z,17.84
2017-01-22T20:46:29.254Z,17.82
2017-01-22T20:47:40.199Z,17.77
2017-01-22T20:48:51.576Z,17.78
2017-01-22T20:50:04.301Z,17.14
2017-01-22T20:51:15.862Z,16.43
2017-01-22T20:52:27.840Z,15.83
2017-01-22T20:53:39.917Z,15.36
2017-01-22T20:54:50.634Z,14.91
2017-01-22T20:56:02.135Z,14.28
2017-01-22T20:57:15.245Z,13.92
2017-01-22T20:58:26.378Z,13.63
2017-01-22T20:59:37.711Z,13.44
2017-01-22T21:00:49.516Z,13.14
2017-01-22T21:02:00.217Z,12.9
2017-01-22T21:03:10.478Z,12.89
2017-01-22T21:04:21.344Z,12.71
2017-01-22T21:05:33.061Z,12.35
2017-01-22T21:06:44.704Z,12.19
2017-01-22T21:07:55.112Z,12.5
2017-01-22T21:09:05.116Z,12.95
2017-01-22T21:10:16.509Z,13.38
2017-01-22T21:11:28.791Z,13.67
2017-01-22T21:12:39.288Z,13.99
2017-01-22T21:13:52.897Z,14.33
2017-01-22T21:15:04.574Z,14.47
2017-01-22T21:16:14.309Z,14.68
2017-01-22T21:17:25.708Z,14.8
2017-01-22T21:18:38.950Z,14.88
2017-01-22T21:19:51.247Z,15.09
2017-01-22T21:21:02.865Z,15.11
2017-01-22T21:22:13.606Z,15.25
2017-01-22T21:23:24.506Z,15.29
2017-01-22T21:24:36.696Z,15.28
2017-01-22T21:25:48.737Z,15.43
2017-01-22T21:26:59.890Z,15.39
2017-01-22T21:28:11.381Z,15.51
2017-01-22T21:29:22.524Z,15.57
2017-01-22T21:30:33.855Z,15.6
2017-01-22T21:31:45.288Z,15.67
2017-01-22T21:32:55.016Z,15.62
2017-01-22T21:34:05.186Z,15.67
2017-01-22T21:35:17.319Z,15.74
2017-01-22T21:36:28.772Z,15.78
2017-01-22T21:37:39.377Z,15.75
2017-01-22T21:38:50.094Z,15.78
2017-01-22T21:40:01.524Z,15.75
2017-01-22T21:41:12.421Z,15.83
2017-01-22T21:42:23.766Z,15.83
2017-01-22T21:43:35.860Z,15.9
2017-01-22T21:44:47.408Z,15.86
2017-01-22T21:45:58.094Z,15.93
2017-01-22T21:47:08.871Z,15.96
2017-01-22T21:48:20.840Z,15.96
2017-01-22T21:49:33.325Z,15.92
2017-01-22T21:50:44.682Z,16.02
2017-01-22T21:51:55.792Z,16
2017-01-22T21:53:07.245Z,16.01
2017-01-22T21:54:18.022Z,16
2017-01-22T21:55:29.060Z,16.05
2017-01-22T21:56:39.837Z,16.08
2017-01-22T21:57:52.369Z,16.07
2017-01-22T21:59:04.147Z,16.15
2017-01-22T22:00:14.500Z,16.05
2017-01-22T22:01:26.435Z,16.08
2017-01-22T22:02:38.270Z,16.11
2017-01-22T22:03:49.801Z,16.12
2017-01-22T22:05:01.754Z,16.11
2017-01-22T22:06:12.682Z,16.08
2017-01-22T22:07:24.632Z,16.12
2017-01-22T22:08:34.661Z,16.21
2017-01-22T22:09:46.262Z,16.14
2017-01-22T22:10:57.371Z,16.12
2017-01-22T22:12:08.705Z,16.17
2017-01-22T22:13:19.294Z,16.2
2017-01-22T22:14:29.435Z,16.17
2017-01-22T22:15:39.981Z,16.17
2017-01-22T22:16:51.282Z,16.15
2017-01-22T22:18:01.967Z,16.2
2017-01-22T22:19:12.780Z,16.21
2017-01-22T22:20:23.557Z,16.21
2017-01-22T22:21:35.823Z,16.24
2017-01-22T22:22:47.260Z,16.28
2017-01-22T22:23:58.017Z,16.24
2017-01-22T22:25:08.830Z,16.21
2017-01-22T22:26:20.373Z,16.25
2017-01-22T22:27:33.228Z,16.24
2017-01-22T22:28:44.079Z,16.28
2017-01-22T22:29:56.440Z,16.27
2017-01-22T22:31:08.184Z,16.27
2017-01-22T22:32:20.897Z,16.23
2017-01-22T22:33:33.874Z,16.2
2017-01-22T22:34:46.672Z,16.25
2017-01-22T22:35:58.102Z,16.35
2017-01-22T22:37:08.279Z,16.3
2017-01-22T22:38:18.007Z,16.23
2017-01-22T22:39:27.789Z,16.21
2017-01-22T22:40:37.517Z,16.24
2017-01-22T22:41:48.135Z,16.24
2017-01-22T22:42:57.880Z,16.28
2017-01-22T22:44:08.053Z,16.27
2017-01-22T22:45:18.276Z,16.15
2017-01-22T22:46:28.448Z,16.27
2017-01-22T22:47:38.617Z,16.24
2017-01-22T22:48:48.786Z,16.25
2017-01-22T22:49:58.507Z,16.17
2017-01-22T22:51:08.293Z,16.15
2017-01-22T22:52:18.043Z,16.2
2017-01-22T22:53:28.219Z,16.15
2017-01-22T22:54:38.388Z,16.17
2017-01-22T22:55:48.145Z,16.21
2017-01-22T22:56:58.367Z,16.2
2017-01-22T22:58:08.564Z,16.17
2017-01-22T22:59:19.181Z,16.12
2017-01-22T23:00:28.906Z,16.17
2017-01-22T23:01:39.076Z,16.2
2017-01-22T23:02:48.861Z,16.12
2017-01-22T23:03:59.041Z,16.24
2017-01-22T23:05:08.771Z,16.11
2017-01-22T23:06:18.500Z,16.24
2017-01-22T23:07:28.234Z,16.08
2017-01-22T23:08:38.451Z,16.11
2017-01-22T23:09:48.180Z,16.09
2017-01-22T23:10:57.909Z,16.08
2017-01-22T23:12:07.642Z,16.08
2017-01-22T23:13:17.407Z,16.11
2017-01-22T23:14:27.185Z,16.08
2017-01-22T23:15:37.806Z,16.17
2017-01-22T23:16:47.536Z,16.09
2017-01-22T23:17:57.260Z,16.11
2017-01-22T23:19:06.985Z,16.14
2017-01-22T23:20:16.762Z,16.04
2017-01-22T23:21:26.055Z,16.04
2017-01-22T23:22:35.781Z,16.05
2017-01-22T23:23:45.506Z,16.02
2017-01-22T23:24:55.679Z,16.01
2017-01-22T23:26:05.466Z,15.97
2017-01-22T23:27:14.758Z,15.96
2017-01-22T23:28:24.923Z,15.96
2017-01-22T23:29:34.647Z,16.02
2017-01-22T23:30:44.817Z,16.02
2017-01-22T23:31:54.594Z,15.96
2017-01-22T23:33:04.320Z,15.97
2017-01-22T23:34:14.489Z,15.9
2017-01-22T23:35:24.222Z,16
2017-01-22T23:36:33.955Z,15.96
2017-01-22T23:37:43.746Z,15.93
2017-01-22T23:38:53.919Z,16
2017-01-22T23:40:03.644Z,15.96
2017-01-22T23:41:13.384Z,15.96
2017-01-22T23:42:23.113Z,15.92
2017-01-22T23:43:32.887Z,15.92
2017-01-22T23:44:42.615Z,15.93
2017-01-22T23:45:53.237Z,15.92
2017-01-22T23:47:03.397Z,15.8
2017-01-22T23:48:13.124Z,15.94
2017-01-22T23:49:22.912Z,15.89
2017-01-22T23:50:33.081Z,15.89
2017-01-22T23:51:43.254Z,15.89
2017-01-22T23:52:53.460Z,15.82
2017-01-22T23:54:03.632Z,15.82
2017-01-22T23:55:13.414Z,15.86
2017-01-22T23:56:23.582Z,15.83
2017-01-22T23:57:33.312Z,15.83
2017-01-22T23:58:42.597Z,15.74
2017-01-22T23:59:52.771Z,15.84
